F/V Pasiphae 2 — FMFN — position and weather

sailwx.info

Track history (hours):
 
Tides and Currents Weather Stations Pressure Air Temp Water Temp Dewpoint Dewpoint Depression Visibility Wind Speed Wind Dir Waves Ship Positions

F/V Pasiphae 2

Last reported at 2015-Sep-05 01:12 UTC. Time now 2015-Sep-05 16:22 UTC.
Position N 47°44' W 003°22'.

Length 14 m.

Type: Fishing. MMSI: 228224800.

Date/timePositionNaut miles runAvg speedWind from/ knotsBaromVisibWave heightAir tempDewpointWater temp
2015-Sep-05 01:12N 47°44' W 003°22'4 5.7
2015-Sep-05 00:33N 47°40' W 003°22'8 7.9
2015-Sep-04 23:33N 47°33' W 003°27'4 4.0
2015-Sep-04 22:33N 47°29' W 003°30'3 2.8
2015-Sep-04 21:33N 47°31' W 003°33'2 2.1
2015-Sep-04 20:33N 47°30' W 003°30'3 3.3
2015-Sep-04 19:33N 47°28' W 003°35'4 3.5
2015-Sep-04 18:21N 47°30' W 003°40'3 3.4
2015-Sep-04 17:33N 47°31' W 003°37'3 0.4
2015-Sep-04 10:15N 47°29' W 003°35'2 2.8
2015-Sep-04 09:33N 47°27' W 003°36'2 2.4
2015-Sep-04 08:32N 47°29' W 003°35'3 3.5
2015-Sep-04 07:33N 47°31' W 003°40'3 3.0
2015-Sep-04 06:33N 47°28' W 003°39'3 3.4
2015-Sep-04 05:33N 47°28' W 003°34'3 3.1
2015-Sep-04 04:33N 47°31' W 003°33'3 2.5
2015-Sep-04 03:33N 47°30' W 003°30'2 2.1
2015-Sep-04 02:33N 47°30' W 003°33'4 4.4
2015-Sep-04 01:33N 47°33' W 003°28'8 8.1
2015-Sep-04 00:33N 47°41' W 003°22'3 3.3
2015-Sep-03 23:33N 47°44' W 003°22'0 0.2
2015-Sep-03 22:33N 47°44' W 003°22'7 7.4
2015-Sep-03 21:33N 47°36' W 003°23'8 8.2
2015-Sep-03 20:33N 47°30' W 003°30'4 3.6
2015-Sep-03 19:31N 47°29' W 003°36'3 3.6
2015-Sep-03 18:33N 47°31' W 003°40'2 2.1
2015-Sep-03 17:33N 47°29' W 003°38'2 1.7
2015-Sep-03 16:33N 47°31' W 003°38'2 2.5
2015-Sep-03 15:33N 47°28' W 003°39'12 1.3
2015-Sep-03 06:23N 47°18' W 003°29'2 2.9
2015-Sep-03 05:32N 47°16' W 003°28'2 1.4
2015-Sep-03 04:03N 47°18' W 003°28'1 3.0
2015-Sep-03 03:33N 47°17' W 003°30'3 3.2
2015-Sep-03 02:31N 47°16' W 003°25'3 2.5
2015-Sep-03 01:13N 47°18' W 003°29'2 3.2
2015-Sep-03 00:33N 47°16' W 003°30'2 1.0
2015-Sep-02 22:33N 47°18' W 003°30'10 0.5
2015-Sep-02 03:33N 47°24' W 003°18'9 9.0
2015-Sep-02 02:33N 47°33' W 003°21'9 9.0
2015-Sep-02 01:33N 47°42' W 003°22'2 2.0
2015-Sep-02 00:33N 47°44' W 003°22'6 6.4
2015-Sep-01 23:33N 47°37' W 003°22'9 8.9
2015-Sep-01 22:33N 47°29' W 003°23'9 8.6
2015-Sep-01 21:33N 47°20' W 003°24'8 7.1
2015-Sep-01 20:29N 47°12' W 003°24'10 0.2
2015-Aug-31 02:33N 47°21' W 003°17'9 8.8
2015-Aug-31 01:33N 47°29' W 003°19'9 8.9
2015-Aug-31 00:33N 47°38' W 003°22'6 0.1
2015-Aug-28 23:33N 47°44' W 003°22'3 3.4
2015-Aug-28 22:33N 47°40' W 003°22'9 9.4
2015-Aug-28 21:33N 47°31' W 003°21'19 9.5
2015-Aug-28 19:33N 47°12' W 003°18'4 0.1
2015-Aug-27 03:26N 47°17' W 003°18'8 8.9
2015-Aug-27 02:33N 47°24' W 003°20'9 8.9
2015-Aug-27 01:33N 47°33' W 003°21'9 8.8
2015-Aug-27 00:33N 47°42' W 003°22'2 2.0
2015-Aug-26 23:33N 47°44' W 003°22'8 8.5
2015-Aug-26 22:33N 47°35' W 003°22'  
Track history (hours):
 
Tides and Currents Weather Stations Pressure Air Temp Water Temp Dewpoint Dewpoint Depression Visibility Wind Speed Wind Dir Waves Ship Positions

F/V Pasiphae 2

Last reported at 2015-Sep-05 01:12 UTC. Time now 2015-Sep-05 16:22 UTC.
Position N 47°44' W 003°22'.

Length 14 m.

Type: Fishing. MMSI: 228224800.

Date/timePositionNaut miles runAvg speedWind from/ knotsBaromVisibWave heightAir tempDewpointWater temp
2015-Sep-05 01:12N 47°44' W 003°22'4 5.7
2015-Sep-05 00:33N 47°40' W 003°22'8 7.9
2015-Sep-04 23:33N 47°33' W 003°27'4 4.0
2015-Sep-04 22:33N 47°29' W 003°30'3 2.8
2015-Sep-04 21:33N 47°31' W 003°33'2 2.1
2015-Sep-04 20:33N 47°30' W 003°30'3 3.3
2015-Sep-04 19:33N 47°28' W 003°35'4 3.5
2015-Sep-04 18:21N 47°30' W 003°40'3 3.4
2015-Sep-04 17:33N 47°31' W 003°37'3 0.4
2015-Sep-04 10:15N 47°29' W 003°35'2 2.8
2015-Sep-04 09:33N 47°27' W 003°36'2 2.4
2015-Sep-04 08:32N 47°29' W 003°35'3 3.5
2015-Sep-04 07:33N 47°31' W 003°40'3 3.0
2015-Sep-04 06:33N 47°28' W 003°39'3 3.4
2015-Sep-04 05:33N 47°28' W 003°34'3 3.1
2015-Sep-04 04:33N 47°31' W 003°33'3 2.5
2015-Sep-04 03:33N 47°30' W 003°30'2 2.1
2015-Sep-04 02:33N 47°30' W 003°33'4 4.4
2015-Sep-04 01:33N 47°33' W 003°28'8 8.1
2015-Sep-04 00:33N 47°41' W 003°22'3 3.3
2015-Sep-03 23:33N 47°44' W 003°22'0 0.2
2015-Sep-03 22:33N 47°44' W 003°22'7 7.4
2015-Sep-03 21:33N 47°36' W 003°23'8 8.2
2015-Sep-03 20:33N 47°30' W 003°30'4 3.6
2015-Sep-03 19:31N 47°29' W 003°36'3 3.6
2015-Sep-03 18:33N 47°31' W 003°40'2 2.1
2015-Sep-03 17:33N 47°29' W 003°38'2 1.7
2015-Sep-03 16:33N 47°31' W 003°38'2 2.5
2015-Sep-03 15:33N 47°28' W 003°39'12 1.3
2015-Sep-03 06:23N 47°18' W 003°29'2 2.9
2015-Sep-03 05:32N 47°16' W 003°28'2 1.4
2015-Sep-03 04:03N 47°18' W 003°28'1 3.0
2015-Sep-03 03:33N 47°17' W 003°30'3 3.2
2015-Sep-03 02:31N 47°16' W 003°25'3 2.5
2015-Sep-03 01:13N 47°18' W 003°29'2 3.2
2015-Sep-03 00:33N 47°16' W 003°30'2 1.0
2015-Sep-02 22:33N 47°18' W 003°30'10 0.5
2015-Sep-02 03:33N 47°24' W 003°18'9 9.0
2015-Sep-02 02:33N 47°33' W 003°21'9 9.0
2015-Sep-02 01:33N 47°42' W 003°22'2 2.0
2015-Sep-02 00:33N 47°44' W 003°22'6 6.4
2015-Sep-01 23:33N 47°37' W 003°22'9 8.9
2015-Sep-01 22:33N 47°29' W 003°23'9 8.6
2015-Sep-01 21:33N 47°20' W 003°24'8 7.1
2015-Sep-01 20:29N 47°12' W 003°24'10 0.2
2015-Aug-31 02:33N 47°21' W 003°17'9 8.8
2015-Aug-31 01:33N 47°29' W 003°19'9 8.9
2015-Aug-31 00:33N 47°38' W 003°22'6 0.1
2015-Aug-28 23:33N 47°44' W 003°22'3 3.4
2015-Aug-28 22:33N 47°40' W 003°22'9 9.4
2015-Aug-28 21:33N 47°31' W 003°21'19 9.5
2015-Aug-28 19:33N 47°12' W 003°18'4 0.1
2015-Aug-27 03:26N 47°17' W 003°18'8 8.9
2015-Aug-27 02:33N 47°24' W 003°20'9 8.9
2015-Aug-27 01:33N 47°33' W 003°21'9 8.8
2015-Aug-27 00:33N 47°42' W 003°22'2 2.0
2015-Aug-26 23:33N 47°44' W 003°22'8 8.5
2015-Aug-26 22:33N 47°35' W 003°22'  

Dump ship's entire track history